createdAt,value
2019-04-25T00:01:47.389Z,15.53
2019-04-25T00:04:15.532Z,15.37
2019-04-25T00:06:42.892Z,15.34
2019-04-25T00:09:12.755Z,15.44
2019-04-25T00:11:39.556Z,15.28
2019-04-25T00:14:06.626Z,15.32
2019-04-25T00:16:35.144Z,15.41
2019-04-25T00:19:02.020Z,15.24
2019-04-25T00:21:32.058Z,15.42
2019-04-25T00:24:02.633Z,15.33
2019-04-25T00:26:31.687Z,15.57
2019-04-25T00:28:58.355Z,15.55
2019-04-25T00:31:26.111Z,15.51
2019-04-25T00:33:53.941Z,15.59
2019-04-25T00:36:21.830Z,15.50
2019-04-25T00:38:49.266Z,15.48
2019-04-25T00:41:17.148Z,15.56
2019-04-25T00:43:44.098Z,15.54
2019-04-25T00:46:11.436Z,15.34
2019-04-25T00:48:38.290Z,15.34
2019-04-25T00:51:04.949Z,15.37
2019-04-25T00:53:32.406Z,15.39
2019-04-25T00:56:01.452Z,15.18
2019-04-25T00:58:31.510Z,15.36
2019-04-25T01:01:01.886Z,15.27
2019-04-25T01:03:31.703Z,15.33
2019-04-25T01:05:59.706Z,15.11
2019-04-25T01:08:26.711Z,15.17
2019-04-25T01:10:54.239Z,15.23
2019-04-25T01:13:22.321Z,15.17
2019-04-25T01:15:49.399Z,15.20
2019-04-25T01:18:16.040Z,15.19
2019-04-25T01:20:43.454Z,15.10
2019-04-25T01:23:11.595Z,15.02
2019-04-25T01:25:41.020Z,15.26
2019-04-25T01:28:06.935Z,15.06
2019-04-25T01:30:34.006Z,15.15
2019-04-25T01:33:01.100Z,15.10
2019-04-25T01:35:29.858Z,15.21
2019-04-25T01:37:58.744Z,15.10
2019-04-25T01:40:27.319Z,15.00
2019-04-25T01:42:55.932Z,15.00
2019-04-25T01:45:24.516Z,15.11
2019-04-25T01:47:52.573Z,14.98
2019-04-25T01:50:20.183Z,15.05
2019-04-25T01:52:46.770Z,15.05
2019-04-25T01:55:13.841Z,14.98
2019-04-25T01:57:40.645Z,15.00
2019-04-25T02:00:10.624Z,14.92
2019-04-25T02:02:37.518Z,15.09
2019-04-25T02:05:06.347Z,14.83
2019-04-25T02:07:33.425Z,14.89
2019-04-25T02:10:00.486Z,14.79
2019-04-25T02:12:29.145Z,14.66
2019-04-25T02:14:56.853Z,14.66
2019-04-25T02:17:24.230Z,14.49
2019-04-25T02:19:52.151Z,14.45
2019-04-25T02:22:19.315Z,14.53
2019-04-25T02:24:45.980Z,14.67
2019-04-25T02:27:13.523Z,14.43
2019-04-25T02:29:40.570Z,14.42
2019-04-25T02:32:09.134Z,14.37
2019-04-25T02:34:36.081Z,14.36
2019-04-25T02:37:08.667Z,14.19
2019-04-25T02:39:36.762Z,14.15
2019-04-25T02:42:04.009Z,14.03
2019-04-25T02:44:34.337Z,14.18
2019-04-25T02:47:02.194Z,14.13
2019-04-25T02:49:38.686Z,14.11
2019-04-25T02:52:02.611Z,14.19
2019-04-25T02:54:30.109Z,14.06
2019-04-25T02:56:57.495Z,13.93
2019-04-25T02:59:25.550Z,14.03
2019-04-25T03:01:54.119Z,13.91
2019-04-25T03:04:20.736Z,13.81
2019-04-25T03:06:47.665Z,13.95
2019-04-25T03:09:15.379Z,13.94
2019-04-25T03:11:45.098Z,13.98
2019-04-25T03:14:11.314Z,13.74
2019-04-25T03:16:38.289Z,13.83
2019-04-25T03:19:08.255Z,13.88
2019-04-25T03:21:37.650Z,13.92
2019-04-25T03:24:09.066Z,13.93
2019-04-25T03:26:40.347Z,13.88
2019-04-25T03:29:04.661Z,13.95
2019-04-25T03:31:31.452Z,13.95
2019-04-25T03:33:58.230Z,13.90
2019-04-25T03:36:24.907Z,13.88
2019-04-25T03:38:51.754Z,13.91
2019-04-25T03:41:18.433Z,13.98
2019-04-25T03:43:45.128Z,14.02
2019-04-25T03:46:14.243Z,14.06
2019-04-25T03:48:41.418Z,13.96
2019-04-25T03:51:08.342Z,13.96
2019-04-25T03:53:35.083Z,14.01
2019-04-25T03:56:02.821Z,14.03
2019-04-25T03:58:30.257Z,14.06
2019-04-25T04:00:58.554Z,14.05
2019-04-25T04:03:25.160Z,14.08
2019-04-25T04:05:51.835Z,13.94
2019-04-25T04:08:18.460Z,14.05
2019-04-25T04:10:48.260Z,14.08
2019-04-25T04:13:15.853Z,14.10
2019-04-25T04:15:43.366Z,14.01
2019-04-25T04:18:14.341Z,14.13
2019-04-25T04:20:43.569Z,14.04
2019-04-25T04:23:13.482Z,14.18
2019-04-25T04:25:41.330Z,14.30
2019-04-25T04:28:07.975Z,14.27
2019-04-25T04:30:34.774Z,14.41
2019-04-25T04:33:03.635Z,14.46
2019-04-25T04:35:30.493Z,14.45
2019-04-25T04:37:57.262Z,14.56
2019-04-25T04:40:24.374Z,14.64
2019-04-25T04:42:51.294Z,14.81
2019-04-25T04:45:18.319Z,14.65
2019-04-25T04:47:45.407Z,14.93
2019-04-25T04:50:14.191Z,15.01
2019-04-25T04:52:40.979Z,15.11
2019-04-25T04:55:10.011Z,14.98
2019-04-25T04:57:37.794Z,14.77
2019-04-25T05:00:06.741Z,14.84
2019-04-25T05:02:35.238Z,14.94
2019-04-25T05:05:04.110Z,14.90
2019-04-25T05:07:34.277Z,15.09
2019-04-25T05:10:00.907Z,14.97
2019-04-25T05:12:27.474Z,15.18
2019-04-25T05:14:54.052Z,15.23
2019-04-25T05:17:20.604Z,15.33
2019-04-25T05:19:47.193Z,15.34
2019-04-25T05:22:14.813Z,15.45
2019-04-25T05:24:43.841Z,15.51
2019-04-25T05:27:10.743Z,15.59
2019-04-25T05:29:37.348Z,15.67
2019-04-25T05:32:04.303Z,15.66
2019-04-25T05:34:31.300Z,15.69
2019-04-25T05:36:57.946Z,15.70
2019-04-25T05:39:25.149Z,15.57
2019-04-25T05:41:54.007Z,15.59
2019-04-25T05:44:21.129Z,15.88
2019-04-25T05:46:47.723Z,15.57
2019-04-25T05:49:15.513Z,15.92
2019-04-25T05:51:43.737Z,15.92
2019-04-25T05:54:10.580Z,16.24
2019-04-25T05:56:37.283Z,16.05
2019-04-25T05:59:05.496Z,16.08
2019-04-25T06:01:34.306Z,16.38
2019-04-25T06:04:01.443Z,16.44
2019-04-25T06:06:28.270Z,16.72
2019-04-25T06:08:56.859Z,16.80
2019-04-25T06:11:26.137Z,16.76
2019-04-25T06:13:54.773Z,17.02
2019-04-25T06:16:25.598Z,17.50
2019-04-25T06:18:54.943Z,17.67
2019-04-25T06:21:23.269Z,17.72
2019-04-25T06:23:52.328Z,17.99
2019-04-25T06:26:33.117Z,17.96
2019-04-25T06:28:53.731Z,18.02
2019-04-25T06:31:16.557Z,17.65
2019-04-25T06:33:43.460Z,17.98
2019-04-25T06:36:10.274Z,17.82
2019-04-25T06:38:37.300Z,17.59
2019-04-25T06:41:03.959Z,17.35
2019-04-25T06:43:30.627Z,17.65
2019-04-25T06:45:59.101Z,17.95
2019-04-25T06:48:27.543Z,18.36
2019-04-25T06:50:54.330Z,18.32
2019-04-25T06:53:21.782Z,18.22
2019-04-25T06:55:49.451Z,18.71
2019-04-25T06:58:16.144Z,19.10
2019-04-25T07:00:57.616Z,19.08
2019-04-25T07:03:13.945Z,19.05
2019-04-25T07:05:41.378Z,19.34
2019-04-25T07:08:08.065Z,19.24
2019-04-25T07:10:35.010Z,18.92
2019-04-25T07:13:01.806Z,18.97
2019-04-25T07:15:28.496Z,18.54
2019-04-25T07:17:55.363Z,18.54
2019-04-25T07:20:24.879Z,18.62
2019-04-25T07:22:51.735Z,18.98
2019-04-25T07:25:21.963Z,19.31
2019-04-25T07:27:50.759Z,18.97
2019-04-25T07:30:27.227Z,19.57
2019-04-25T07:32:53.973Z,19.76
2019-04-25T07:35:20.797Z,19.87
2019-04-25T07:37:47.649Z,19.95
2019-04-25T07:40:15.518Z,20.09
2019-04-25T07:42:43.828Z,20.02
2019-04-25T07:45:14.193Z,20.07
2019-04-25T07:47:41.044Z,19.98
2019-04-25T07:50:09.117Z,20.26
2019-04-25T07:52:37.706Z,20.39
2019-04-25T07:55:05.703Z,20.64
2019-04-25T07:57:33.532Z,20.76
2019-04-25T08:00:01.212Z,20.83
2019-04-25T08:02:28.249Z,20.36
2019-04-25T08:04:55.905Z,20.55
2019-04-25T08:07:24.055Z,20.78
2019-04-25T08:09:51.235Z,20.66
2019-04-25T08:12:18.130Z,20.86
2019-04-25T08:14:46.591Z,20.97
2019-04-25T08:17:15.476Z,21.11
2019-04-25T08:19:44.215Z,20.96
2019-04-25T08:22:13.643Z,21.14
2019-04-25T08:24:41.305Z,21.47
2019-04-25T08:27:08.127Z,21.48
2019-04-25T08:29:37.995Z,21.74
2019-04-25T08:32:04.599Z,21.61
2019-04-25T08:34:32.432Z,21.34
2019-04-25T08:36:59.960Z,21.67
2019-04-25T08:39:27.667Z,21.22
2019-04-25T08:41:54.556Z,21.64
2019-04-25T08:44:21.513Z,21.76
2019-04-25T08:46:48.895Z,22.09
2019-04-25T08:49:17.491Z,21.50
2019-04-25T08:51:45.050Z,22.00
2019-04-25T08:54:13.773Z,22.08
2019-04-25T08:56:40.842Z,21.91
2019-04-25T08:59:09.967Z,22.15
2019-04-25T09:01:40.607Z,22.43
2019-04-25T09:04:09.221Z,22.43
2019-04-25T09:06:37.548Z,22.57
2019-04-25T09:09:07.225Z,22.66
2019-04-25T09:11:36.663Z,22.77
2019-04-25T09:14:03.722Z,22.67
2019-04-25T09:16:30.754Z,22.97
2019-04-25T09:18:57.377Z,22.97
2019-04-25T09:21:24.087Z,22.89
2019-04-25T09:23:50.930Z,23.02
2019-04-25T09:26:17.753Z,23.14
2019-04-25T09:28:46.314Z,23.23
2019-04-25T09:31:14.117Z,23.27
2019-04-25T09:33:41.230Z,23.20
2019-04-25T09:36:08.243Z,23.47
2019-04-25T09:38:35.744Z,23.56
2019-04-25T09:41:03.954Z,23.56
2019-04-25T09:43:30.923Z,23.72
2019-04-25T09:45:59.569Z,23.67
2019-04-25T09:48:28.079Z,23.71
2019-04-25T09:50:56.634Z,23.56
2019-04-25T09:53:23.905Z,23.95
2019-04-25T09:55:51.984Z,23.86
2019-04-25T09:58:20.480Z,23.92
2019-04-25T10:00:49.193Z,23.90
2019-04-25T10:03:15.845Z,23.78
2019-04-25T10:05:42.798Z,23.87
2019-04-25T10:08:09.551Z,24.07
2019-04-25T10:10:36.611Z,24.32
2019-04-25T10:13:06.272Z,24.33
2019-04-25T10:15:39.066Z,24.40
2019-04-25T10:18:06.118Z,24.21
2019-04-25T10:20:33.441Z,24.47
2019-04-25T10:23:00.563Z,24.50
2019-04-25T10:25:27.238Z,24.60
2019-04-25T10:27:54.044Z,24.35
2019-04-25T10:30:23.744Z,24.16
2019-04-25T10:32:49.562Z,24.35
2019-04-25T10:35:16.253Z,24.28
2019-04-25T10:37:44.828Z,24.31
2019-04-25T10:40:14.267Z,24.43
2019-04-25T10:42:41.222Z,24.17
2019-04-25T10:45:20.471Z,24.55
2019-04-25T10:47:37.913Z,24.79
2019-04-25T10:50:06.045Z,24.49
2019-04-25T10:52:33.749Z,24.55
2019-04-25T10:55:00.517Z,24.96
2019-04-25T10:57:28.496Z,24.95
2019-04-25T11:00:05.911Z,24.90
2019-04-25T11:02:24.390Z,24.85
2019-04-25T11:04:54.538Z,25.09
2019-04-25T11:07:23.382Z,25.18
2019-04-25T11:09:50.140Z,24.88
2019-04-25T11:12:17.894Z,25.15
2019-04-25T11:14:44.928Z,25.17
2019-04-25T11:17:13.204Z,25.42
2019-04-25T11:19:41.034Z,25.46
2019-04-25T11:22:08.343Z,25.50
2019-04-25T11:24:36.786Z,25.44
2019-04-25T11:27:04.298Z,25.55
2019-04-25T11:29:31.348Z,25.42
2019-04-25T11:31:58.572Z,25.54
2019-04-25T11:34:25.971Z,25.49
2019-04-25T11:36:52.632Z,25.55
2019-04-25T11:39:21.333Z,24.93
2019-04-25T11:41:49.463Z,25.34
2019-04-25T11:44:16.845Z,24.77
2019-04-25T11:46:45.324Z,25.02
2019-04-25T11:49:15.118Z,25.18
2019-04-25T11:51:42.744Z,24.76
2019-04-25T11:54:10.746Z,24.74
2019-04-25T11:56:37.429Z,25.23
2019-04-25T11:59:04.613Z,25.50
2019-04-25T12:01:31.600Z,25.66
2019-04-25T12:03:58.535Z,25.47
2019-04-25T12:06:25.317Z,25.76
2019-04-25T12:08:53.853Z,25.74
2019-04-25T12:11:20.585Z,25.54
2019-04-25T12:13:48.103Z,25.21
2019-04-25T12:16:17.183Z,25.45
2019-04-25T12:18:47.690Z,25.48
2019-04-25T12:21:13.587Z,25.42
2019-04-25T12:23:40.518Z,25.66
2019-04-25T12:26:07.317Z,25.69
2019-04-25T12:28:34.177Z,25.66
2019-04-25T12:31:00.966Z,25.79
2019-04-25T12:33:27.622Z,25.41
2019-04-25T12:35:55.328Z,25.81
2019-04-25T12:38:24.478Z,25.86
2019-04-25T12:40:52.634Z,26.06
2019-04-25T12:43:23.905Z,26.05
2019-04-25T12:45:52.964Z,25.66
2019-04-25T12:48:19.649Z,25.72
2019-04-25T12:50:47.908Z,25.78
2019-04-25T12:53:15.004Z,25.49
2019-04-25T12:55:41.857Z,25.83
2019-04-25T12:58:08.517Z,25.93
2019-04-25T13:00:47.278Z,25.80
2019-04-25T13:03:06.845Z,25.95
2019-04-25T13:05:34.167Z,25.88
2019-04-25T13:08:01.154Z,25.67
2019-04-25T13:10:27.927Z,25.37
2019-04-25T13:12:55.484Z,25.34
2019-04-25T13:15:23.475Z,25.44
2019-04-25T13:17:51.146Z,25.54
2019-04-25T13:20:18.187Z,25.71
2019-04-25T13:22:44.743Z,26.18
2019-04-25T13:25:14.813Z,26.45
2019-04-25T13:27:44.575Z,26.08
2019-04-25T13:30:14.018Z,25.98
2019-04-25T13:32:42.786Z,25.87
2019-04-25T13:35:13.518Z,26.04
2019-04-25T13:37:40.227Z,25.86
2019-04-25T13:40:07.130Z,26.32
2019-04-25T13:42:33.715Z,26.49
2019-04-25T13:45:00.627Z,26.34
2019-04-25T13:47:29.176Z,26.34
2019-04-25T13:49:56.125Z,26.41
2019-04-25T13:52:23.858Z,26.40
2019-04-25T13:54:51.243Z,26.72
2019-04-25T13:57:17.933Z,26.33
2019-04-25T13:59:45.859Z,26.61
2019-04-25T14:02:14.130Z,26.59
2019-04-25T14:04:40.914Z,26.24
2019-04-25T14:07:07.782Z,26.46
2019-04-25T14:09:34.912Z,26.37
2019-04-25T14:12:01.855Z,26.35
2019-04-25T14:14:28.544Z,26.66
2019-04-25T14:16:57.227Z,26.82
2019-04-25T14:19:25.773Z,26.93
2019-04-25T14:21:54.386Z,26.96
2019-04-25T14:24:22.915Z,26.56
2019-04-25T14:26:50.216Z,26.87
2019-04-25T14:29:17.104Z,27.10
2019-04-25T14:31:47.958Z,26.79
2019-04-25T14:34:13.278Z,26.99
2019-04-25T14:36:40.064Z,26.34
2019-04-25T14:39:07.081Z,26.74
2019-04-25T14:41:35.579Z,26.46
2019-04-25T14:44:02.253Z,26.11
2019-04-25T14:46:29.851Z,25.89
2019-04-25T14:48:56.647Z,25.99
2019-04-25T14:51:24.139Z,25.63
2019-04-25T14:53:52.359Z,25.49
2019-04-25T14:56:21.655Z,25.62
2019-04-25T14:58:49.179Z,25.83
2019-04-25T15:01:17.958Z,26.32
2019-04-25T15:03:44.879Z,26.12
2019-04-25T15:06:11.976Z,26.18
2019-04-25T15:08:38.833Z,26.37
2019-04-25T15:11:05.887Z,26.57
2019-04-25T15:13:32.658Z,26.93
2019-04-25T15:15:59.520Z,27.08
2019-04-25T15:18:26.727Z,26.99
2019-04-25T15:20:53.430Z,27.18
2019-04-25T15:23:24.139Z,27.12
2019-04-25T15:25:51.691Z,26.55
2019-04-25T15:28:18.622Z,26.58
2019-04-25T15:30:45.968Z,26.82
2019-04-25T15:33:12.809Z,27.10
2019-04-25T15:35:41.524Z,27.11
2019-04-25T15:38:10.171Z,27.34
2019-04-25T15:40:41.063Z,26.97
2019-04-25T15:43:09.966Z,26.83
2019-04-25T15:45:41.337Z,27.06
2019-04-25T15:48:08.133Z,26.93
2019-04-25T15:50:35.023Z,26.88
2019-04-25T15:53:01.787Z,26.77
2019-04-25T15:55:28.990Z,26.39
2019-04-25T15:57:56.101Z,26.43
2019-04-25T16:00:25.062Z,26.51
2019-04-25T16:02:51.841Z,26.23
2019-04-25T16:05:18.481Z,26.14
2019-04-25T16:07:45.394Z,25.93
2019-04-25T16:10:12.737Z,25.77
2019-04-25T16:12:42.721Z,25.87
2019-04-25T16:15:09.725Z,25.42
2019-04-25T16:17:37.190Z,25.44
2019-04-25T16:20:05.652Z,25.53
2019-04-25T16:22:32.493Z,25.42
2019-04-25T16:24:59.239Z,25.53
2019-04-25T16:27:25.971Z,25.16
2019-04-25T16:29:52.648Z,25.30
2019-04-25T16:32:22.552Z,25.23
2019-04-25T16:34:49.282Z,25.05
2019-04-25T16:37:16.184Z,25.15
2019-04-25T16:39:43.174Z,25.12
2019-04-25T16:42:10.062Z,24.90
2019-04-25T16:44:36.699Z,24.95
2019-04-25T16:47:03.791Z,24.96
2019-04-25T16:49:30.903Z,24.95
2019-04-25T16:51:57.641Z,24.72
2019-04-25T16:54:24.284Z,24.68
2019-04-25T16:56:51.250Z,24.52
2019-04-25T16:59:18.075Z,24.40
2019-04-25T17:01:45.031Z,24.33
2019-04-25T17:04:12.107Z,24.44
2019-04-25T17:06:38.995Z,24.44
2019-04-25T17:09:06.221Z,24.17
2019-04-25T17:11:35.890Z,24.30
2019-04-25T17:14:05.112Z,24.05
2019-04-25T17:16:32.562Z,23.75
2019-04-25T17:19:01.377Z,23.75
2019-04-25T17:21:28.088Z,23.61
2019-04-25T17:23:54.989Z,23.37
2019-04-25T17:26:22.066Z,23.16
2019-04-25T17:28:50.884Z,23.06
2019-04-25T17:31:19.931Z,23.09
2019-04-25T17:33:48.624Z,22.96
2019-04-25T17:36:17.438Z,22.72
2019-04-25T17:38:46.426Z,22.68
2019-04-25T17:41:13.014Z,22.69
2019-04-25T17:43:39.804Z,22.65
2019-04-25T17:46:10.878Z,22.44
2019-04-25T17:48:36.921Z,22.48
2019-04-25T17:51:06.073Z,22.41
2019-04-25T17:53:33.078Z,22.36
2019-04-25T17:56:00.072Z,22.21
2019-04-25T17:58:29.230Z,22.17
2019-04-25T18:00:56.218Z,22.09
2019-04-25T18:03:23.481Z,22.03
2019-04-25T18:05:51.667Z,21.92
2019-04-25T18:08:18.418Z,21.87
2019-04-25T18:10:45.043Z,21.92
2019-04-25T18:13:11.730Z,21.85
2019-04-25T18:15:40.290Z,21.85
2019-04-25T18:18:08.926Z,21.73
2019-04-25T18:20:38.848Z,21.57
2019-04-25T18:23:07.814Z,21.55
2019-04-25T18:25:36.938Z,21.41
2019-04-25T18:28:06.148Z,21.49
2019-04-25T18:30:32.950Z,21.33
2019-04-25T18:33:10.029Z,21.31
2019-04-25T18:35:31.962Z,21.16
2019-04-25T18:38:00.654Z,21.02
2019-04-25T18:40:29.216Z,20.97
2019-04-25T18:42:57.820Z,20.90
2019-04-25T18:45:26.461Z,20.90
2019-04-25T18:47:53.241Z,20.88
2019-04-25T18:50:21.941Z,20.74
2019-04-25T18:52:50.628Z,20.76
2019-04-25T18:55:19.230Z,20.74
2019-04-25T18:57:47.809Z,20.62
2019-04-25T19:00:16.705Z,20.46
2019-04-25T19:02:45.998Z,20.44
2019-04-25T19:05:14.827Z,20.43
2019-04-25T19:07:41.517Z,20.30
2019-04-25T19:10:10.164Z,20.16
2019-04-25T19:12:36.745Z,20.16
2019-04-25T19:15:05.070Z,19.99
2019-04-25T19:17:31.754Z,19.92
2019-04-25T19:19:58.422Z,19.93
2019-04-25T19:22:25.005Z,19.91
2019-04-25T19:24:52.192Z,19.96
2019-04-25T19:27:23.917Z,19.78
2019-04-25T19:29:47.435Z,19.76
2019-04-25T19:32:14.257Z,19.76
2019-04-25T19:34:41.270Z,19.65
2019-04-25T19:37:08.742Z,19.68
2019-04-25T19:39:37.457Z,19.58
2019-04-25T19:42:06.361Z,19.34
2019-04-25T19:44:33.028Z,19.43
2019-04-25T19:46:59.575Z,19.36
2019-04-25T19:49:26.179Z,19.33
2019-04-25T19:51:52.910Z,19.35
2019-04-25T19:54:19.886Z,19.22
2019-04-25T19:56:49.612Z,19.13
2019-04-25T19:59:16.516Z,19.01
2019-04-25T20:01:44.058Z,19.11
2019-04-25T20:04:12.842Z,19.14
2019-04-25T20:06:42.402Z,19.13
2019-04-25T20:09:12.961Z,19.08
2019-04-25T20:11:44.214Z,19.04
2019-04-25T20:14:11.383Z,18.99
2019-04-25T20:16:40.703Z,18.74
2019-04-25T20:19:09.458Z,18.62
2019-04-25T20:21:36.669Z,18.70
2019-04-25T20:24:03.890Z,18.66
2019-04-25T20:26:30.971Z,18.61
2019-04-25T20:28:57.552Z,18.55
2019-04-25T20:31:24.326Z,18.52
2019-04-25T20:34:03.278Z,18.56
2019-04-25T20:36:20.241Z,18.42
2019-04-25T20:38:47.240Z,18.38
2019-04-25T20:41:14.263Z,18.15
2019-04-25T20:43:41.465Z,18.20
2019-04-25T20:46:08.103Z,18.02
2019-04-25T20:48:34.698Z,18.11
2019-04-25T20:51:01.387Z,18.17
2019-04-25T20:53:27.984Z,18.03
2019-04-25T20:55:54.994Z,17.96
2019-04-25T20:58:22.099Z,17.91
2019-04-25T21:00:51.609Z,17.86
2019-04-25T21:03:18.585Z,17.85
2019-04-25T21:05:46.999Z,17.63
2019-04-25T21:08:13.562Z,17.67
2019-04-25T21:10:40.367Z,17.47
2019-04-25T21:13:08.979Z,17.54
2019-04-25T21:15:37.768Z,17.46
2019-04-25T21:18:06.379Z,17.34
2019-04-25T21:20:32.930Z,17.46
2019-04-25T21:22:59.630Z,17.35
2019-04-25T21:25:26.366Z,17.44
2019-04-25T21:27:53.036Z,17.40
2019-04-25T21:30:19.723Z,17.43
2019-04-25T21:32:48.314Z,17.47
2019-04-25T21:35:15.172Z,17.38
2019-04-25T21:37:43.664Z,17.30
2019-04-25T21:40:13.026Z,17.23
2019-04-25T21:42:41.722Z,17.29
2019-04-25T21:45:09.532Z,17.17
2019-04-25T21:47:36.282Z,17.18
2019-04-25T21:50:06.125Z,17.13
2019-04-25T21:52:33.259Z,17.06
2019-04-25T21:55:00.166Z,16.98
2019-04-25T21:57:27.088Z,16.96
2019-04-25T22:00:03.108Z,16.95
2019-04-25T22:02:23.271Z,16.83
2019-04-25T22:04:50.680Z,16.74
2019-04-25T22:07:17.862Z,16.71
2019-04-25T22:09:44.952Z,16.62
2019-04-25T22:12:13.910Z,16.57
2019-04-25T22:14:40.576Z,16.38
2019-04-25T22:17:07.612Z,16.43
2019-04-25T22:19:34.646Z,16.54
2019-04-25T22:22:02.703Z,16.55
2019-04-25T22:24:30.617Z,16.45
2019-04-25T22:26:59.414Z,16.42
2019-04-25T22:29:26.745Z,16.43
2019-04-25T22:34:52.009Z,16.53
2019-04-25T22:37:14.271Z,16.35
2019-04-25T22:39:41.251Z,16.26
2019-04-25T22:42:08.030Z,16.15
2019-04-25T22:44:35.029Z,16.01
2019-04-25T22:47:04.258Z,16.00
2019-04-25T22:49:31.018Z,16.10
2019-04-25T22:51:57.669Z,16.08
2019-04-25T22:54:25.930Z,15.74
2019-04-25T22:56:52.630Z,15.74
2019-04-25T22:59:19.648Z,15.67
2019-04-25T23:01:48.394Z,15.56
2019-04-25T23:04:17.037Z,15.60
2019-04-25T23:06:44.214Z,15.64
2019-04-25T23:09:12.085Z,15.40
2019-04-25T23:11:40.282Z,15.45
2019-04-25T23:14:07.221Z,15.41
2019-04-25T23:16:33.881Z,15.35
2019-04-25T23:19:00.452Z,15.24
2019-04-25T23:21:27.103Z,15.11
2019-04-25T23:23:54.004Z,15.13
2019-04-25T23:26:22.649Z,15.05
2019-04-25T23:28:51.700Z,14.95
2019-04-25T23:31:20.210Z,14.97
2019-04-25T23:33:47.418Z,14.95
2019-04-25T23:36:15.392Z,14.98
2019-04-25T23:38:42.317Z,14.89
2019-04-25T23:41:09.389Z,14.81
2019-04-25T23:43:36.228Z,14.91
2019-04-25T23:46:03.022Z,14.84
2019-04-25T23:48:30.352Z,14.93
2019-04-25T23:50:57.157Z,14.78
2019-04-25T23:53:23.709Z,14.79
2019-04-25T23:55:50.574Z,14.69
2019-04-25T23:58:18.003Z,14.55
